createdAt,value
2023-01-18T00:03:36.718Z,94197.72
2023-01-18T00:08:39.744Z,94203.19
2023-01-18T00:13:41.804Z,94209.16
2023-01-18T00:18:49.731Z,94208.44
2023-01-18T00:23:51.520Z,94229.47
2023-01-18T00:28:56.184Z,94227.88
2023-01-18T00:33:58.544Z,94223.91
2023-01-18T00:39:00.742Z,94224.78
2023-01-18T00:44:02.445Z,94226.22
2023-01-18T00:49:04.209Z,94225.22
2023-01-18T00:54:05.865Z,94231.78
2023-01-18T00:59:07.717Z,94237.09
2023-01-18T01:04:28.166Z,94236.59
2023-01-18T01:09:29.945Z,94247.38
2023-01-18T01:14:52.301Z,94239.28
2023-01-18T01:20:12.695Z,94246.44
2023-01-18T01:25:33.183Z,94255.09
2023-01-18T01:30:34.927Z,94252.88
2023-01-18T01:35:36.643Z,94248.03
2023-01-18T01:40:38.414Z,94253.94
2023-01-18T01:45:40.125Z,94251.25
2023-01-18T01:50:42.005Z,94255.00
2023-01-18T01:55:43.756Z,94260.63
2023-01-18T02:00:45.631Z,94264.09
2023-01-18T02:05:50.492Z,94260.84
2023-01-18T02:10:52.720Z,94260.84
2023-01-18T02:16:06.640Z,94270.03
2023-01-18T02:21:18.547Z,94270.03
2023-01-18T02:26:48.458Z,94274.94
2023-01-18T02:32:13.196Z,94290.13
2023-01-18T02:37:20.977Z,94305.25
2023-01-18T02:42:45.579Z,94317.44
2023-01-18T02:47:48.307Z,94315.78
2023-01-18T02:52:52.048Z,94311.72
2023-01-18T02:58:00.117Z,94312.81
2023-01-18T03:03:02.352Z,94311.44
2023-01-18T03:08:27.291Z,94324.88
2023-01-18T03:13:58.647Z,94325.72
2023-01-18T03:19:25.179Z,94333.78
2023-01-18T03:24:30.259Z,94341.31
2023-01-18T03:29:51.029Z,94340.81
2023-01-18T03:35:07.982Z,94338.94
2023-01-18T03:40:27.344Z,94329.22
2023-01-18T03:45:48.129Z,94331.09
2023-01-18T03:51:00.290Z,94324.06
2023-01-18T03:56:08.695Z,94337.19
2023-01-18T04:01:10.641Z,94342.28
2023-01-18T04:06:12.429Z,94332.06
2023-01-18T04:11:14.081Z,94321.78
2023-01-18T04:16:16.126Z,94333.31
2023-01-18T04:21:18.018Z,94336.84
2023-01-18T04:26:19.897Z,94342.22
2023-01-18T04:31:22.552Z,94347.88
2023-01-18T04:36:24.339Z,94345.53
2023-01-18T04:41:26.027Z,94351.47
2023-01-18T04:46:27.851Z,94358.44
2023-01-18T04:51:31.337Z,94354.69
2023-01-18T04:56:33.041Z,94361.44
2023-01-18T05:01:35.701Z,94359.03
2023-01-18T05:06:37.453Z,94372.47
2023-01-18T05:11:39.224Z,94366.00
2023-01-18T05:16:41.155Z,94375.72
2023-01-18T05:21:42.952Z,94380.81
2023-01-18T05:26:45.054Z,94386.50
2023-01-18T05:31:46.843Z,94389.47
2023-01-18T05:36:49.196Z,94387.59
2023-01-18T05:41:50.890Z,94393.78
2023-01-18T05:46:52.578Z,94400.00
2023-01-18T05:51:54.236Z,94402.66
2023-01-18T05:56:56.377Z,94402.69
2023-01-18T06:01:58.095Z,94405.94
2023-01-18T06:06:59.964Z,94413.97
2023-01-18T06:12:02.047Z,94419.09
2023-01-18T06:17:04.600Z,94431.72
2023-01-18T06:22:06.671Z,94429.84
2023-01-18T06:27:08.403Z,94440.19
2023-01-18T06:32:10.119Z,94450.47
2023-01-18T06:37:12.696Z,94451.59
2023-01-18T06:42:14.503Z,94453.22
2023-01-18T06:47:19.807Z,94471.75
2023-01-18T06:52:21.895Z,94468.28
2023-01-18T06:57:23.933Z,94476.34
2023-01-18T07:02:25.612Z,94482.78
2023-01-18T07:07:27.891Z,94484.94
2023-01-18T07:12:29.554Z,94490.84
2023-01-18T07:17:31.749Z,94498.91
2023-01-18T07:22:33.418Z,94506.72
2023-01-18T07:27:35.135Z,94508.88
2023-01-18T07:32:36.767Z,94509.41
2023-01-18T07:37:38.597Z,94519.34
2023-01-18T07:42:40.549Z,94522.03
2023-01-18T07:47:42.733Z,94520.97
2023-01-18T07:52:44.543Z,94531.44
2023-01-18T07:57:46.259Z,94535.50
2023-01-18T08:02:51.018Z,94536.84
2023-01-18T08:07:53.790Z,94550.50
2023-01-18T08:12:55.613Z,94563.16
2023-01-18T08:17:57.753Z,94565.59
2023-01-18T08:23:00.840Z,94572.06
2023-01-18T08:28:03.642Z,94587.13
2023-01-18T08:33:05.677Z,94591.91
2023-01-18T08:38:07.474Z,94592.50
2023-01-18T08:43:10.956Z,94611.34
2023-01-18T08:48:12.548Z,94618.88
2023-01-18T08:53:14.235Z,94621.03
2023-01-18T08:58:15.910Z,94640.38
2023-01-18T09:03:21.959Z,94647.91
2023-01-18T09:08:23.698Z,94652.22
2023-01-18T09:13:25.358Z,94665.94
2023-01-18T09:18:27.159Z,94661.88
2023-01-18T09:23:28.810Z,94682.88
2023-01-18T09:28:31.565Z,94680.69
2023-01-18T09:33:37.869Z,94685.47
2023-01-18T09:38:44.713Z,94697.34
2023-01-18T09:43:52.874Z,94710.25
2023-01-18T09:48:59.323Z,94715.06
2023-01-18T09:54:14.000Z,94731.25
2023-01-18T09:59:32.908Z,94731.53
2023-01-18T10:04:41.054Z,94732.91
2023-01-18T10:09:49.403Z,94752.28
2023-01-18T10:15:22.911Z,94765.78
2023-01-18T10:20:44.309Z,94775.97
2023-01-18T10:25:53.292Z,94787.31
2023-01-18T10:31:06.325Z,94787.81
2023-01-18T10:36:16.312Z,94791.56
2023-01-18T10:41:28.029Z,94797.72
2023-01-18T10:46:30.508Z,94803.91
2023-01-18T10:51:36.362Z,94823.78
2023-01-18T10:56:39.967Z,94830.03
2023-01-18T11:02:01.127Z,94840.28
2023-01-18T11:07:33.905Z,94835.47
2023-01-18T11:12:44.236Z,94860.88
2023-01-18T11:17:56.200Z,94870.88
2023-01-18T11:23:14.759Z,94892.53
2023-01-18T11:28:19.954Z,94892.53
2023-01-18T11:33:23.957Z,94902.78
2023-01-18T11:38:28.492Z,94903.59
2023-01-18T11:43:33.958Z,94911.41
2023-01-18T11:48:44.718Z,94923.81
2023-01-18T11:53:55.680Z,94942.16
2023-01-18T11:58:57.811Z,94940.28
2023-01-18T12:04:03.964Z,94953.22
2023-01-18T12:09:11.696Z,94960.50
2023-01-18T12:14:28.593Z,94974.78
2023-01-18T12:19:52.491Z,94981.50
2023-01-18T12:25:00.319Z,94981.81
2023-01-18T12:30:29.749Z,94998.78
2023-01-18T12:35:50.610Z,95017.13
2023-01-18T12:41:26.746Z,95035.97
2023-01-18T12:46:43.671Z,95034.94
2023-01-18T12:51:49.343Z,95034.38
2023-01-18T12:56:54.816Z,95041.38
2023-01-18T13:02:24.314Z,95047.59
2023-01-18T13:07:32.976Z,95052.44
2023-01-18T13:12:34.757Z,95050.31
2023-01-18T13:17:36.735Z,95054.34
2023-01-18T13:23:03.571Z,95071.09
2023-01-18T13:28:18.722Z,95089.13
2023-01-18T13:33:26.158Z,95090.50
2023-01-18T13:38:40.994Z,95111.81
2023-01-18T13:43:43.374Z,95122.06
2023-01-18T13:48:46.552Z,95130.69
2023-01-18T13:53:50.099Z,95130.69
2023-01-18T13:59:01.718Z,95149.34
2023-01-18T14:04:31.939Z,95151.00
2023-01-18T14:09:43.284Z,95150.97
2023-01-18T14:15:00.913Z,95162.84
2023-01-18T14:20:34.170Z,95176.59
2023-01-18T14:25:48.634Z,95182.25
2023-01-18T14:30:54.764Z,95192.47
2023-01-18T14:35:59.098Z,95198.44
2023-01-18T14:41:08.440Z,95202.78
2023-01-18T14:46:15.825Z,95208.44
2023-01-18T14:51:22.268Z,95214.09
2023-01-18T14:56:29.291Z,95232.72
2023-01-18T15:01:31.301Z,95241.06
2023-01-18T15:06:43.618Z,95244.81
2023-01-18T15:11:45.500Z,95251.81
2023-01-18T15:16:50.480Z,95266.41
2023-01-18T15:21:52.238Z,95276.06
2023-01-18T15:26:56.173Z,95277.13
2023-01-18T15:32:02.447Z,95293.28
2023-01-18T15:37:09.950Z,95289.53
2023-01-18T15:42:15.300Z,95301.13
2023-01-18T15:47:23.678Z,95302.72
2023-01-18T15:52:43.979Z,95312.16
2023-01-18T15:58:00.823Z,95324.84
2023-01-18T16:03:04.457Z,95341.03
2023-01-18T16:08:21.368Z,95347.75
2023-01-18T16:13:26.607Z,95349.38
2023-01-18T16:18:28.246Z,95366.03
2023-01-18T16:23:30.024Z,95370.91
2023-01-18T16:28:32.060Z,95382.47
2023-01-18T16:33:33.701Z,95387.34
2023-01-18T16:38:35.530Z,95386.00
2023-01-18T16:43:37.219Z,95403.28
2023-01-18T16:48:38.935Z,95407.03
2023-01-18T16:53:40.649Z,95417.78
2023-01-18T16:58:43.571Z,95422.34
2023-01-18T17:03:45.604Z,95430.69
2023-01-18T17:08:49.142Z,95437.47
2023-01-18T17:13:50.914Z,95453.09
2023-01-18T17:18:52.564Z,95470.13
2023-01-18T17:23:54.327Z,95482.59
2023-01-18T17:28:55.969Z,95500.69
2023-01-18T17:33:58.685Z,95500.41
2023-01-18T17:39:00.358Z,95525.19
2023-01-18T17:44:03.168Z,95533.31
2023-01-18T17:49:04.928Z,95540.97
2023-01-18T17:54:13.137Z,95557.91
2023-01-18T17:59:22.247Z,95565.81
2023-01-18T18:04:23.911Z,95571.81
2023-01-18T18:09:25.850Z,95574.81
2023-01-18T18:14:30.796Z,95578.13
2023-01-18T18:19:33.580Z,95578.97
2023-01-18T18:24:35.243Z,95589.00
2023-01-18T18:29:36.902Z,95599.44
2023-01-18T18:34:38.687Z,95604.44
2023-01-18T18:39:40.599Z,95619.81
2023-01-18T18:44:42.267Z,95623.75
2023-01-18T18:49:44.951Z,95632.09
2023-01-18T18:54:46.894Z,95644.34
2023-01-18T18:59:49.367Z,95654.19
2023-01-18T19:04:51.172Z,95660.72
2023-01-18T19:09:53.344Z,95667.75
2023-01-18T19:14:55.077Z,95676.91
2023-01-18T19:19:56.842Z,95688.22
2023-01-18T19:24:59.500Z,95693.59
2023-01-18T19:30:01.227Z,95701.38
2023-01-18T19:35:03.093Z,95710.78
2023-01-18T19:40:05.785Z,95730.41
2023-01-18T19:45:08.211Z,95727.47
2023-01-18T19:50:11.634Z,95718.81
2023-01-18T19:55:13.792Z,95726.88
2023-01-18T20:00:16.610Z,95731.72
2023-01-18T20:05:18.344Z,95737.34
2023-01-18T20:10:20.232Z,95739.78
2023-01-18T20:15:22.989Z,95761.94
2023-01-18T20:20:32.502Z,95755.72
2023-01-18T20:25:34.656Z,95757.06
2023-01-18T20:30:39.158Z,95758.66
2023-01-18T20:35:42.077Z,95774.84
2023-01-18T20:41:24.225Z,95777.00
2023-01-18T20:47:06.138Z,95783.19
2023-01-18T20:52:22.416Z,95793.19
2023-01-18T20:57:37.279Z,95803.47
2023-01-18T21:02:42.215Z,95815.81
2023-01-18T21:07:44.139Z,95823.41
2023-01-18T21:12:47.554Z,95828.78
2023-01-18T21:17:51.397Z,95842.88
2023-01-18T21:22:53.233Z,95852.81
2023-01-18T21:27:55.300Z,95853.41
2023-01-18T21:32:57.011Z,95864.44
2023-01-18T21:38:02.436Z,95860.66
2023-01-18T21:43:22.591Z,95872.44
2023-01-18T21:48:26.560Z,95877.34
2023-01-18T21:53:46.935Z,95879.72
2023-01-18T21:58:55.036Z,95885.91
2023-01-18T22:04:15.431Z,95885.38
2023-01-18T22:09:17.789Z,95895.00
2023-01-18T22:14:19.549Z,95900.38
2023-01-18T22:19:21.291Z,95912.81
2023-01-18T22:24:23.114Z,95915.41
2023-01-18T22:29:24.907Z,95934.06
2023-01-18T22:34:26.993Z,95934.41
2023-01-18T22:39:28.650Z,95930.97
2023-01-18T22:44:30.419Z,95938.81
2023-01-18T22:49:32.173Z,95943.72
2023-01-18T22:54:33.922Z,95935.16
2023-01-18T22:59:35.547Z,95937.66
2023-01-18T23:04:37.175Z,95939.09
2023-01-18T23:09:39.027Z,95940.72
2023-01-18T23:14:59.359Z,95938.03
2023-01-18T23:20:01.123Z,95946.59
2023-01-18T23:25:03.824Z,95944.72
2023-01-18T23:30:05.770Z,95950.03
2023-01-18T23:35:07.828Z,95954.94
2023-01-18T23:40:28.935Z,95953.38
2023-01-18T23:45:49.239Z,95961.94
2023-01-18T23:51:09.549Z,95962.44
2023-01-18T23:56:11.328Z,95971.59
